Terminal Aerodrome Forecast
Issued by NWS

Home | Current Version | Previous Version | Graphics & Text | Print | Product List | Glossary On
Versions: 1 2 3 4 5 6 7 8 9 10 11 12 13 14
000
FTUS42 KMHX 261100
TAFISO
TAF
KISO 261136Z 2612/2712 03012G18KT 4SM -RA OVC005
      TEMPO 2612/2614 OVC002
     FM261700 33010G17KT P6SM VCSH SCT007 OVC020
     FM262300 30004KT P6SM SCT025 BKN050
      AMD LTD TO CLD VIS AND WIND=

USA.gov is the U.S. government's official web portal to all federal, state and local government web resources and services.